Syosyun — JD2406 — position and weather

sailwx.info

Track history (hours):
 
Tides and Currents Weather Stations Pressure Air Temp Water Temp Dewpoint Dewpoint Depression Visibility Wind Speed Wind Dir Waves Ship Positions

Syosyun

Last reported at 2015-Mar-11 20:32 UTC. Time now 2015-Mar-27 22:11 UTC.
Position N 35°05' E 139°35'.
Warning: this ship's position is 16 days out of date.

Length 74 m; draft 3.8 m.

Type: Cargo ship. MMSI: 431000201.

Date/timePositionNaut miles runAvg speedWind from/ knotsBaromVisibWave heightAir tempDewpointWater temp
2015-Mar-11 20:32N 35°05' E 139°35'7 7.1
2015-Mar-11 19:33N 35°08' E 139°42'9 8.5
2015-Mar-11 18:33N 35°16' E 139°46'6 5.3
2015-Mar-11 17:21N 35°20' E 139°40'0 0.0
2015-Mar-11 16:33N 35°20' E 139°40'0 0.0
2015-Mar-11 15:33N 35°20' E 139°40'0 0.0
2015-Mar-11 14:33N 35°20' E 139°40'0 0.0
2015-Mar-11 13:33N 35°20' E 139°40'0 0.0
2015-Mar-11 12:33N 35°20' E 139°40'0 0.0
2015-Mar-11 11:33N 35°20' E 139°40'0 0.0
2015-Mar-11 10:33N 35°20' E 139°40'0 0.0
2015-Mar-11 09:33N 35°20' E 139°40'0 0.1
2015-Mar-11 08:33N 35°20' E 139°40'1010.0
2015-Mar-11 07:33N 35°29' E 139°47'9 0.3
2015-Mar-10 03:28N 35°32' E 139°57'1011.4
2015-Mar-10 02:33N 35°27' E 139°46'5 4.5
2015-Mar-10 01:33N 35°25' E 139°41'0 0.0
2015-Mar-10 00:30N 35°25' E 139°41'0 0.0
2015-Mar-09 23:33N 35°25' E 139°41'0 0.0
2015-Mar-09 22:33N 35°25' E 139°41'0 0.0
2015-Mar-09 21:30N 35°25' E 139°41'0 0.0
2015-Mar-09 20:33N 35°25' E 139°41'0 0.0
2015-Mar-09 19:33N 35°25' E 139°41'0 0.0
2015-Mar-09 18:33N 35°25' E 139°41'0 0.0
2015-Mar-09 17:33N 35°25' E 139°41'0 0.0
2015-Mar-09 16:30N 35°25' E 139°41'0 0.0
2015-Mar-09 15:33N 35°25' E 139°41'0 0.0
2015-Mar-09 14:33N 35°25' E 139°41'0 0.0
2015-Mar-09 13:33N 35°25' E 139°41'0 0.0
2015-Mar-09 12:33N 35°25' E 139°41'0 0.0
2015-Mar-09 11:33N 35°25' E 139°41'0 0.0
2015-Mar-09 10:33N 35°25' E 139°41'0 0.0
2015-Mar-09 09:33N 35°25' E 139°41'0 0.0
2015-Mar-09 08:33N 35°25' E 139°41'0 0.0
2015-Mar-09 07:33N 35°25' E 139°41'0 0.0
2015-Mar-09 06:33N 35°25' E 139°41'0 0.0
2015-Mar-09 05:33N 35°25' E 139°41'0 0.0
2015-Mar-09 04:30N 35°25' E 139°41'0 0.0
2015-Mar-09 03:33N 35°25' E 139°41'5 4.6
2015-Mar-09 02:33N 35°21' E 139°43'10 9.9
2015-Mar-09 01:33N 35°12' E 139°47'1010.4
2015-Mar-09 00:33N 35°03' E 139°39'  
Track history (hours):
 
Tides and Currents Weather Stations Pressure Air Temp Water Temp Dewpoint Dewpoint Depression Visibility Wind Speed Wind Dir Waves Ship Positions

Syosyun

Last reported at 2015-Mar-11 20:32 UTC. Time now 2015-Mar-27 22:11 UTC.
Position N 35°05' E 139°35'.
Warning: this ship's position is 16 days out of date.

Length 74 m; draft 3.8 m.

Type: Cargo ship. MMSI: 431000201.

Date/timePositionNaut miles runAvg speedWind from/ knotsBaromVisibWave heightAir tempDewpointWater temp
2015-Mar-11 20:32N 35°05' E 139°35'7 7.1
2015-Mar-11 19:33N 35°08' E 139°42'9 8.5
2015-Mar-11 18:33N 35°16' E 139°46'6 5.3
2015-Mar-11 17:21N 35°20' E 139°40'0 0.0
2015-Mar-11 16:33N 35°20' E 139°40'0 0.0
2015-Mar-11 15:33N 35°20' E 139°40'0 0.0
2015-Mar-11 14:33N 35°20' E 139°40'0 0.0
2015-Mar-11 13:33N 35°20' E 139°40'0 0.0
2015-Mar-11 12:33N 35°20' E 139°40'0 0.0
2015-Mar-11 11:33N 35°20' E 139°40'0 0.0
2015-Mar-11 10:33N 35°20' E 139°40'0 0.0
2015-Mar-11 09:33N 35°20' E 139°40'0 0.1
2015-Mar-11 08:33N 35°20' E 139°40'1010.0
2015-Mar-11 07:33N 35°29' E 139°47'9 0.3
2015-Mar-10 03:28N 35°32' E 139°57'1011.4
2015-Mar-10 02:33N 35°27' E 139°46'5 4.5
2015-Mar-10 01:33N 35°25' E 139°41'0 0.0
2015-Mar-10 00:30N 35°25' E 139°41'0 0.0
2015-Mar-09 23:33N 35°25' E 139°41'0 0.0
2015-Mar-09 22:33N 35°25' E 139°41'0 0.0
2015-Mar-09 21:30N 35°25' E 139°41'0 0.0
2015-Mar-09 20:33N 35°25' E 139°41'0 0.0
2015-Mar-09 19:33N 35°25' E 139°41'0 0.0
2015-Mar-09 18:33N 35°25' E 139°41'0 0.0
2015-Mar-09 17:33N 35°25' E 139°41'0 0.0
2015-Mar-09 16:30N 35°25' E 139°41'0 0.0
2015-Mar-09 15:33N 35°25' E 139°41'0 0.0
2015-Mar-09 14:33N 35°25' E 139°41'0 0.0
2015-Mar-09 13:33N 35°25' E 139°41'0 0.0
2015-Mar-09 12:33N 35°25' E 139°41'0 0.0
2015-Mar-09 11:33N 35°25' E 139°41'0 0.0
2015-Mar-09 10:33N 35°25' E 139°41'0 0.0
2015-Mar-09 09:33N 35°25' E 139°41'0 0.0
2015-Mar-09 08:33N 35°25' E 139°41'0 0.0
2015-Mar-09 07:33N 35°25' E 139°41'0 0.0
2015-Mar-09 06:33N 35°25' E 139°41'0 0.0
2015-Mar-09 05:33N 35°25' E 139°41'0 0.0
2015-Mar-09 04:30N 35°25' E 139°41'0 0.0
2015-Mar-09 03:33N 35°25' E 139°41'5 4.6
2015-Mar-09 02:33N 35°21' E 139°43'10 9.9
2015-Mar-09 01:33N 35°12' E 139°47'1010.4
2015-Mar-09 00:33N 35°03' E 139°39'  

Dump ship's entire track history